sensor_id;sensor_type;location;lat;lon;timestamp;P1;durP1;ratioP1;P2;durP2;ratioP2
77262;SDS011;66373;52.334;4.806;2023-11-21T00:02:00;6.85;;;3.90;;
77262;SDS011;66373;52.334;4.806;2023-11-21T00:04:36;4.22;;;3.83;;
77262;SDS011;66373;52.334;4.806;2023-11-21T00:07:06;6.53;;;3.97;;
77262;SDS011;66373;52.334;4.806;2023-11-21T00:09:56;6.72;;;4.38;;
77262;SDS011;66373;52.334;4.806;2023-11-21T00:12:26;4.85;;;3.72;;
77262;SDS011;66373;52.334;4.806;2023-11-21T00:14:54;6.88;;;4.03;;
77262;SDS011;66373;52.334;4.806;2023-11-21T00:17:22;6.10;;;4.20;;
77262;SDS011;66373;52.334;4.806;2023-11-21T00:19:51;5.45;;;4.10;;
77262;SDS011;66373;52.334;4.806;2023-11-21T00:22:18;6.38;;;4.07;;
77262;SDS011;66373;52.334;4.806;2023-11-21T00:24:46;5.22;;;3.90;;
77262;SDS011;66373;52.334;4.806;2023-11-21T00:27:13;7.10;;;4.00;;
77262;SDS011;66373;52.334;4.806;2023-11-21T00:29:40;7.07;;;4.03;;
77262;SDS011;66373;52.334;4.806;2023-11-21T00:32:07;5.93;;;4.03;;
77262;SDS011;66373;52.334;4.806;2023-11-21T00:34:35;7.00;;;4.05;;
77262;SDS011;66373;52.334;4.806;2023-11-21T00:37:04;4.55;;;3.72;;
77262;SDS011;66373;52.334;4.806;2023-11-21T00:39:31;4.97;;;3.63;;
77262;SDS011;66373;52.334;4.806;2023-11-21T00:41:58;5.72;;;3.78;;
77262;SDS011;66373;52.334;4.806;2023-11-21T00:44:25;5.95;;;3.92;;
77262;SDS011;66373;52.334;4.806;2023-11-21T00:46:52;4.15;;;3.60;;
77262;SDS011;66373;52.334;4.806;2023-11-21T00:49:19;4.97;;;3.78;;
77262;SDS011;66373;52.334;4.806;2023-11-21T00:51:48;5.82;;;3.80;;
77262;SDS011;66373;52.334;4.806;2023-11-21T00:54:17;4.68;;;3.42;;
77262;SDS011;66373;52.334;4.806;2023-11-21T00:56:44;4.95;;;3.38;;
77262;SDS011;66373;52.334;4.806;2023-11-21T00:59:12;6.93;;;3.92;;
77262;SDS011;66373;52.334;4.806;2023-11-21T01:01:40;5.35;;;3.78;;
77262;SDS011;66373;52.334;4.806;2023-11-21T01:04:07;5.07;;;3.63;;
77262;SDS011;66373;52.334;4.806;2023-11-21T01:06:34;4.05;;;3.55;;
77262;SDS011;66373;52.334;4.806;2023-11-21T01:09:01;7.57;;;3.55;;
77262;SDS011;66373;52.334;4.806;2023-11-21T01:11:34;5.50;;;3.47;;
77262;SDS011;66373;52.334;4.806;2023-11-21T01:14:02;5.70;;;3.80;;
77262;SDS011;66373;52.334;4.806;2023-11-21T01:16:30;3.50;;;3.20;;
77262;SDS011;66373;52.334;4.806;2023-11-21T01:18:58;7.65;;;3.70;;
77262;SDS011;66373;52.334;4.806;2023-11-21T01:21:25;4.15;;;3.22;;
77262;SDS011;66373;52.334;4.806;2023-11-21T01:23:53;5.63;;;3.40;;
77262;SDS011;66373;52.334;4.806;2023-11-21T01:26:20;4.72;;;3.30;;
77262;SDS011;66373;52.334;4.806;2023-11-21T01:28:49;4.97;;;3.20;;
77262;SDS011;66373;52.334;4.806;2023-11-21T01:31:16;3.97;;;3.42;;
77262;SDS011;66373;52.334;4.806;2023-11-21T01:33:43;4.57;;;2.97;;
77262;SDS011;66373;52.334;4.806;2023-11-21T01:36:10;4.80;;;3.45;;
77262;SDS011;66373;52.334;4.806;2023-11-21T01:38:37;6.63;;;3.63;;
77262;SDS011;66373;52.334;4.806;2023-11-21T01:41:04;4.60;;;3.08;;
77262;SDS011;66373;52.334;4.806;2023-11-21T01:43:32;5.43;;;3.33;;
77262;SDS011;66373;52.334;4.806;2023-11-21T01:46:00;3.65;;;2.95;;
77262;SDS011;66373;52.334;4.806;2023-11-21T01:48:27;6.78;;;3.30;;
77262;SDS011;66373;52.334;4.806;2023-11-21T01:50:55;3.55;;;3.00;;
77262;SDS011;66373;52.334;4.806;2023-11-21T01:53:23;3.15;;;2.85;;
77262;SDS011;66373;52.334;4.806;2023-11-21T01:55:51;5.18;;;3.10;;
77262;SDS011;66373;52.334;4.806;2023-11-21T01:58:20;4.93;;;3.03;;
77262;SDS011;66373;52.334;4.806;2023-11-21T02:00:47;5.15;;;3.13;;
77262;SDS011;66373;52.334;4.806;2023-11-21T02:03:17;5.10;;;3.05;;
77262;SDS011;66373;52.334;4.806;2023-11-21T02:05:45;4.97;;;2.60;;
77262;SDS011;66373;52.334;4.806;2023-11-21T02:08:12;4.05;;;2.72;;
77262;SDS011;66373;52.334;4.806;2023-11-21T02:10:39;5.15;;;2.97;;
77262;SDS011;66373;52.334;4.806;2023-11-21T02:13:07;3.28;;;2.78;;
77262;SDS011;66373;52.334;4.806;2023-11-21T02:15:34;6.03;;;2.63;;
77262;SDS011;66373;52.334;4.806;2023-11-21T02:18:02;4.07;;;2.92;;
77262;SDS011;66373;52.334;4.806;2023-11-21T02:20:32;7.03;;;3.10;;
77262;SDS011;66373;52.334;4.806;2023-11-21T02:23:04;2.97;;;2.67;;
77262;SDS011;66373;52.334;4.806;2023-11-21T02:25:31;4.20;;;2.97;;
77262;SDS011;66373;52.334;4.806;2023-11-21T02:28:01;4.28;;;2.65;;
77262;SDS011;66373;52.334;4.806;2023-11-21T02:30:29;3.63;;;2.72;;
77262;SDS011;66373;52.334;4.806;2023-11-21T02:32:57;4.32;;;2.80;;
77262;SDS011;66373;52.334;4.806;2023-11-21T02:35:25;5.10;;;2.83;;
77262;SDS011;66373;52.334;4.806;2023-11-21T02:37:52;4.55;;;2.75;;
77262;SDS011;66373;52.334;4.806;2023-11-21T02:40:21;5.20;;;2.75;;
77262;SDS011;66373;52.334;4.806;2023-11-21T02:42:50;8.15;;;2.83;;
77262;SDS011;66373;52.334;4.806;2023-11-21T02:45:18;3.95;;;3.17;;
77262;SDS011;66373;52.334;4.806;2023-11-21T02:47:46;5.13;;;3.30;;
77262;SDS011;66373;52.334;4.806;2023-11-21T02:50:14;5.50;;;3.05;;
77262;SDS011;66373;52.334;4.806;2023-11-21T02:52:41;6.72;;;2.70;;
77262;SDS011;66373;52.334;4.806;2023-11-21T02:55:09;5.10;;;2.70;;
77262;SDS011;66373;52.334;4.806;2023-11-21T02:57:37;4.63;;;3.03;;
77262;SDS011;66373;52.334;4.806;2023-11-21T03:00:05;3.40;;;2.65;;
77262;SDS011;66373;52.334;4.806;2023-11-21T03:02:34;5.15;;;2.58;;
77262;SDS011;66373;52.334;4.806;2023-11-21T03:05:04;3.85;;;2.95;;
77262;SDS011;66373;52.334;4.806;2023-11-21T03:07:32;4.00;;;2.60;;
77262;SDS011;66373;52.334;4.806;2023-11-21T03:09:59;3.28;;;2.60;;
77262;SDS011;66373;52.334;4.806;2023-11-21T03:12:26;3.67;;;2.78;;
77262;SDS011;66373;52.334;4.806;2023-11-21T03:14:54;4.65;;;2.70;;
77262;SDS011;66373;52.334;4.806;2023-11-21T03:17:21;5.20;;;2.70;;
77262;SDS011;66373;52.334;4.806;2023-11-21T03:19:49;2.92;;;2.40;;
77262;SDS011;66373;52.334;4.806;2023-11-21T03:22:17;3.35;;;2.45;;
77262;SDS011;66373;52.334;4.806;2023-11-21T03:24:44;2.75;;;2.55;;
77262;SDS011;66373;52.334;4.806;2023-11-21T03:27:11;4.72;;;2.60;;
77262;SDS011;66373;52.334;4.806;2023-11-21T03:29:38;3.38;;;2.55;;
77262;SDS011;66373;52.334;4.806;2023-11-21T03:32:07;4.00;;;2.35;;
77262;SDS011;66373;52.334;4.806;2023-11-21T03:34:34;2.72;;;2.35;;
77262;SDS011;66373;52.334;4.806;2023-11-21T03:37:01;3.08;;;2.35;;
77262;SDS011;66373;52.334;4.806;2023-11-21T03:39:28;6.70;;;2.33;;
77262;SDS011;66373;52.334;4.806;2023-11-21T03:41:55;3.25;;;2.78;;
77262;SDS011;66373;52.334;4.806;2023-11-21T03:44:22;3.55;;;2.75;;
77262;SDS011;66373;52.334;4.806;2023-11-21T03:46:51;4.40;;;2.50;;
77262;SDS011;66373;52.334;4.806;2023-11-21T03:49:20;4.47;;;2.45;;
77262;SDS011;66373;52.334;4.806;2023-11-21T03:51:47;3.17;;;2.42;;
77262;SDS011;66373;52.334;4.806;2023-11-21T03:54:14;2.53;;;2.10;;
77262;SDS011;66373;52.334;4.806;2023-11-21T03:56:41;3.08;;;2.40;;
77262;SDS011;66373;52.334;4.806;2023-11-21T03:59:10;2.50;;;2.30;;
77262;SDS011;66373;52.334;4.806;2023-11-21T04:01:38;4.60;;;2.47;;
77262;SDS011;66373;52.334;4.806;2023-11-21T04:04:05;5.22;;;2.83;;
77262;SDS011;66373;52.334;4.806;2023-11-21T04:06:33;2.55;;;2.10;;
77262;SDS011;66373;52.334;4.806;2023-11-21T04:09:01;3.85;;;2.47;;
77262;SDS011;66373;52.334;4.806;2023-11-21T04:11:29;5.18;;;2.55;;
77262;SDS011;66373;52.334;4.806;2023-11-21T04:13:56;2.67;;;2.47;;
77262;SDS011;66373;52.334;4.806;2023-11-21T04:16:23;4.35;;;2.08;;
77262;SDS011;66373;52.334;4.806;2023-11-21T04:18:50;2.35;;;2.13;;
77262;SDS011;66373;52.334;4.806;2023-11-21T04:21:17;4.85;;;2.42;;
77262;SDS011;66373;52.334;4.806;2023-11-21T04:23:46;2.65;;;1.92;;
77262;SDS011;66373;52.334;4.806;2023-11-21T04:26:13;3.22;;;2.25;;
77262;SDS011;66373;52.334;4.806;2023-11-21T04:28:40;3.33;;;2.30;;
77262;SDS011;66373;52.334;4.806;2023-11-21T04:31:07;2.97;;;2.15;;
77262;SDS011;66373;52.334;4.806;2023-11-21T04:33:34;4.47;;;2.40;;
77262;SDS011;66373;52.334;4.806;2023-11-21T04:36:01;3.47;;;1.98;;
77262;SDS011;66373;52.334;4.806;2023-11-21T04:38:29;2.50;;;2.17;;
77262;SDS011;66373;52.334;4.806;2023-11-21T04:40:57;3.10;;;2.30;;
77262;SDS011;66373;52.334;4.806;2023-11-21T04:43:24;3.03;;;2.22;;
77262;SDS011;66373;52.334;4.806;2023-11-21T04:45:51;2.20;;;1.88;;
77262;SDS011;66373;52.334;4.806;2023-11-21T04:48:18;2.83;;;2.50;;
77262;SDS011;66373;52.334;4.806;2023-11-21T04:50:45;2.30;;;2.10;;
77262;SDS011;66373;52.334;4.806;2023-11-21T04:53:12;2.63;;;2.05;;
77262;SDS011;66373;52.334;4.806;2023-11-21T04:55:40;3.50;;;2.20;;
77262;SDS011;66373;52.334;4.806;2023-11-21T04:58:08;2.95;;;2.03;;
77262;SDS011;66373;52.334;4.806;2023-11-21T05:00:36;3.55;;;2.30;;
77262;SDS011;66373;52.334;4.806;2023-11-21T05:03:03;3.50;;;2.20;;
77262;SDS011;66373;52.334;4.806;2023-11-21T05:05:32;2.13;;;1.92;;
77262;SDS011;66373;52.334;4.806;2023-11-21T05:07:59;5.50;;;2.20;;
77262;SDS011;66373;52.334;4.806;2023-11-21T05:10:27;2.20;;;2.00;;
77262;SDS011;66373;52.334;4.806;2023-11-21T05:12:54;3.17;;;2.20;;
77262;SDS011;66373;52.334;4.806;2023-11-21T05:15:23;3.33;;;2.20;;
77262;SDS011;66373;52.334;4.806;2023-11-21T05:17:50;3.63;;;2.00;;
77262;SDS011;66373;52.334;4.806;2023-11-21T05:20:17;1.95;;;1.80;;
77262;SDS011;66373;52.334;4.806;2023-11-21T05:22:46;7.03;;;2.47;;
77262;SDS011;66373;52.334;4.806;2023-11-21T05:25:13;2.47;;;2.20;;
77262;SDS011;66373;52.334;4.806;2023-11-21T05:27:42;4.07;;;2.00;;
77262;SDS011;66373;52.334;4.806;2023-11-21T05:30:09;2.38;;;2.17;;
77262;SDS011;66373;52.334;4.806;2023-11-21T05:32:39;2.72;;;1.80;;
77262;SDS011;66373;52.334;4.806;2023-11-21T05:35:08;2.28;;;2.00;;
77262;SDS011;66373;52.334;4.806;2023-11-21T05:37:39;2.53;;;1.92;;
77262;SDS011;66373;52.334;4.806;2023-11-21T05:40:07;2.58;;;2.05;;
77262;SDS011;66373;52.334;4.806;2023-11-21T05:42:35;1.88;;;1.77;;
77262;SDS011;66373;52.334;4.806;2023-11-21T05:45:03;4.18;;;1.90;;
77262;SDS011;66373;52.334;4.806;2023-11-21T05:47:36;3.63;;;2.00;;
77262;SDS011;66373;52.334;4.806;2023-11-21T05:50:06;3.03;;;2.13;;
77262;SDS011;66373;52.334;4.806;2023-11-21T05:52:37;2.60;;;2.30;;
77262;SDS011;66373;52.334;4.806;2023-11-21T05:55:05;3.38;;;2.00;;
77262;SDS011;66373;52.334;4.806;2023-11-21T05:57:33;4.47;;;2.65;;
77262;SDS011;66373;52.334;4.806;2023-11-21T06:00:03;5.13;;;2.28;;
77262;SDS011;66373;52.334;4.806;2023-11-21T06:02:36;2.38;;;2.17;;
77262;SDS011;66373;52.334;4.806;2023-11-21T06:05:06;6.95;;;2.42;;
77262;SDS011;66373;52.334;4.806;2023-11-21T06:07:34;4.38;;;2.00;;
77262;SDS011;66373;52.334;4.806;2023-11-21T06:10:01;3.85;;;2.13;;
77262;SDS011;66373;52.334;4.806;2023-11-21T06:12:32;4.18;;;2.30;;
77262;SDS011;66373;52.334;4.806;2023-11-21T06:15:01;6.22;;;2.20;;
77262;SDS011;66373;52.334;4.806;2023-11-21T06:17:30;6.38;;;2.40;;
77262;SDS011;66373;52.334;4.806;2023-11-21T06:19:58;6.20;;;2.60;;
77262;SDS011;66373;52.334;4.806;2023-11-21T06:22:27;3.65;;;1.98;;
77262;SDS011;66373;52.334;4.806;2023-11-21T06:24:55;6.40;;;2.67;;
77262;SDS011;66373;52.334;4.806;2023-11-21T06:27:23;3.03;;;2.13;;
77262;SDS011;66373;52.334;4.806;2023-11-21T06:29:50;4.47;;;2.40;;
77262;SDS011;66373;52.334;4.806;2023-11-21T06:32:18;7.30;;;2.60;;
77262;SDS011;66373;52.334;4.806;2023-11-21T06:34:45;3.45;;;2.25;;
77262;SDS011;66373;52.334;4.806;2023-11-21T06:37:15;3.60;;;2.35;;
77262;SDS011;66373;52.334;4.806;2023-11-21T06:39:48;6.00;;;2.17;;
77262;SDS011;66373;52.334;4.806;2023-11-21T06:42:19;4.97;;;1.95;;
77262;SDS011;66373;52.334;4.806;2023-11-21T06:44:46;7.75;;;2.85;;
77262;SDS011;66373;52.334;4.806;2023-11-21T06:47:16;5.00;;;2.60;;
77262;SDS011;66373;52.334;4.806;2023-11-21T06:49:45;6.03;;;2.83;;
77262;SDS011;66373;52.334;4.806;2023-11-21T06:52:14;8.15;;;2.42;;
77262;SDS011;66373;52.334;4.806;2023-11-21T06:54:41;11.05;;;2.42;;
77262;SDS011;66373;52.334;4.806;2023-11-21T06:57:10;2.58;;;2.17;;
77262;SDS011;66373;52.334;4.806;2023-11-21T06:59:37;6.60;;;2.70;;
77262;SDS011;66373;52.334;4.806;2023-11-21T07:02:04;5.30;;;2.35;;
77262;SDS011;66373;52.334;4.806;2023-11-21T07:04:32;4.30;;;2.50;;
77262;SDS011;66373;52.334;4.806;2023-11-21T07:06:59;3.67;;;2.10;;
77262;SDS011;66373;52.334;4.806;2023-11-21T07:09:26;3.90;;;2.13;;
77262;SDS011;66373;52.334;4.806;2023-11-21T07:11:56;6.60;;;2.25;;
77262;SDS011;66373;52.334;4.806;2023-11-21T07:14:26;5.32;;;2.55;;
77262;SDS011;66373;52.334;4.806;2023-11-21T07:16:53;3.33;;;2.28;;
77262;SDS011;66373;52.334;4.806;2023-11-21T07:19:20;6.38;;;2.30;;
77262;SDS011;66373;52.334;4.806;2023-11-21T07:21:48;3.97;;;2.03;;
77262;SDS011;66373;52.334;4.806;2023-11-21T07:24:16;5.63;;;2.50;;
77262;SDS011;66373;52.334;4.806;2023-11-21T07:26:44;2.78;;;2.25;;
77262;SDS011;66373;52.334;4.806;2023-11-21T07:29:11;8.02;;;2.83;;
77262;SDS011;66373;52.334;4.806;2023-11-21T07:31:40;9.57;;;3.55;;
77262;SDS011;66373;52.334;4.806;2023-11-21T07:34:11;6.93;;;3.20;;
77262;SDS011;66373;52.334;4.806;2023-11-21T07:36:44;6.97;;;2.78;;
77262;SDS011;66373;52.334;4.806;2023-11-21T07:39:12;4.28;;;3.35;;
77262;SDS011;66373;52.334;4.806;2023-11-21T07:41:41;6.72;;;3.33;;
77262;SDS011;66373;52.334;4.806;2023-11-21T07:44:14;7.75;;;3.20;;
77262;SDS011;66373;52.334;4.806;2023-11-21T07:46:48;9.95;;;3.42;;
77262;SDS011;66373;52.334;4.806;2023-11-21T07:49:15;4.55;;;3.00;;
77262;SDS011;66373;52.334;4.806;2023-11-21T07:51:45;5.30;;;3.10;;
77262;SDS011;66373;52.334;4.806;2023-11-21T07:54:12;7.38;;;2.92;;
77262;SDS011;66373;52.334;4.806;2023-11-21T07:56:40;6.38;;;2.90;;
77262;SDS011;66373;52.334;4.806;2023-11-21T07:59:07;3.60;;;2.50;;
77262;SDS011;66373;52.334;4.806;2023-11-21T08:01:37;7.10;;;2.67;;
77262;SDS011;66373;52.334;4.806;2023-11-21T08:04:08;6.80;;;3.17;;
77262;SDS011;66373;52.334;4.806;2023-11-21T08:06:35;6.22;;;2.75;;
77262;SDS011;66373;52.334;4.806;2023-11-21T08:09:03;6.25;;;2.83;;
77262;SDS011;66373;52.334;4.806;2023-11-21T08:11:30;6.22;;;2.33;;
77262;SDS011;66373;52.334;4.806;2023-11-21T08:13:58;5.15;;;3.03;;
77262;SDS011;66373;52.334;4.806;2023-11-21T08:16:25;2.95;;;2.33;;
77262;SDS011;66373;52.334;4.806;2023-11-21T08:18:52;5.00;;;2.53;;
77262;SDS011;66373;52.334;4.806;2023-11-21T08:21:22;5.75;;;2.80;;
77262;SDS011;66373;52.334;4.806;2023-11-21T08:23:50;6.10;;;2.50;;
77262;SDS011;66373;52.334;4.806;2023-11-21T08:26:19;4.18;;;2.45;;
77262;SDS011;66373;52.334;4.806;2023-11-21T08:28:46;7.80;;;2.60;;
77262;SDS011;66373;52.334;4.806;2023-11-21T08:31:13;6.15;;;2.35;;
77262;SDS011;66373;52.334;4.806;2023-11-21T08:33:41;6.32;;;2.60;;
77262;SDS011;66373;52.334;4.806;2023-11-21T08:36:08;6.45;;;2.17;;
77262;SDS011;66373;52.334;4.806;2023-11-21T08:38:38;4.82;;;2.15;;
77262;SDS011;66373;52.334;4.806;2023-11-21T08:41:06;4.65;;;2.50;;
77262;SDS011;66373;52.334;4.806;2023-11-21T08:43:34;2.88;;;2.20;;
77262;SDS011;66373;52.334;4.806;2023-11-21T08:46:05;8.82;;;2.38;;
77262;SDS011;66373;52.334;4.806;2023-11-21T08:48:34;2.95;;;2.15;;
77262;SDS011;66373;52.334;4.806;2023-11-21T08:51:02;2.97;;;2.10;;
77262;SDS011;66373;52.334;4.806;2023-11-21T08:53:29;5.78;;;2.22;;
77262;SDS011;66373;52.334;4.806;2023-11-21T08:55:58;3.75;;;2.13;;
77262;SDS011;66373;52.334;4.806;2023-11-21T08:58:25;6.82;;;2.53;;
77262;SDS011;66373;52.334;4.806;2023-11-21T09:00:52;4.32;;;2.28;;
77262;SDS011;66373;52.334;4.806;2023-11-21T09:03:20;8.68;;;2.42;;
77262;SDS011;66373;52.334;4.806;2023-11-21T09:05:46;3.63;;;2.00;;
77262;SDS011;66373;52.334;4.806;2023-11-21T09:08:14;5.18;;;1.95;;
77262;SDS011;66373;52.334;4.806;2023-11-21T09:10:41;5.90;;;2.30;;
77262;SDS011;66373;52.334;4.806;2023-11-21T09:13:13;2.70;;;1.77;;
77262;SDS011;66373;52.334;4.806;2023-11-21T09:15:42;4.43;;;1.95;;
77262;SDS011;66373;52.334;4.806;2023-11-21T09:18:12;2.53;;;2.10;;
77262;SDS011;66373;52.334;4.806;2023-11-21T09:20:39;2.53;;;1.95;;
77262;SDS011;66373;52.334;4.806;2023-11-21T09:23:08;5.10;;;2.13;;
77262;SDS011;66373;52.334;4.806;2023-11-21T09:25:35;4.15;;;2.30;;
77262;SDS011;66373;52.334;4.806;2023-11-21T09:28:02;3.53;;;2.13;;
77262;SDS011;66373;52.334;4.806;2023-11-21T09:30:34;3.10;;;1.85;;
77262;SDS011;66373;52.334;4.806;2023-11-21T09:33:02;5.15;;;2.10;;
77262;SDS011;66373;52.334;4.806;2023-11-21T09:35:30;4.22;;;2.10;;
77262;SDS011;66373;52.334;4.806;2023-11-21T09:37:57;2.92;;;2.15;;
77262;SDS011;66373;52.334;4.806;2023-11-21T09:40:26;2.67;;;2.08;;
77262;SDS011;66373;52.334;4.806;2023-11-21T09:42:56;5.10;;;2.20;;
77262;SDS011;66373;52.334;4.806;2023-11-21T09:45:27;2.47;;;2.00;;
77262;SDS011;66373;52.334;4.806;2023-11-21T09:47:58;2.60;;;1.80;;
77262;SDS011;66373;52.334;4.806;2023-11-21T09:50:25;2.45;;;2.10;;
77262;SDS011;66373;52.334;4.806;2023-11-21T09:52:57;2.05;;;1.88;;
77262;SDS011;66373;52.334;4.806;2023-11-21T09:55:30;5.53;;;2.55;;
77262;SDS011;66373;52.334;4.806;2023-11-21T09:58:02;2.22;;;2.08;;
77262;SDS011;66373;52.334;4.806;2023-11-21T10:00:33;3.35;;;2.10;;
77262;SDS011;66373;52.334;4.806;2023-11-21T10:03:04;4.55;;;2.20;;
77262;SDS011;66373;52.334;4.806;2023-11-21T10:05:32;4.03;;;2.00;;
77262;SDS011;66373;52.334;4.806;2023-11-21T10:08:02;4.60;;;2.30;;
77262;SDS011;66373;52.334;4.806;2023-11-21T10:10:35;2.63;;;2.40;;
77262;SDS011;66373;52.334;4.806;2023-11-21T10:13:08;3.00;;;2.20;;
77262;SDS011;66373;52.334;4.806;2023-11-21T10:15:42;3.78;;;2.50;;
77262;SDS011;66373;52.334;4.806;2023-11-21T10:18:15;3.28;;;2.40;;
77262;SDS011;66373;52.334;4.806;2023-11-21T10:20:46;6.25;;;2.40;;
77262;SDS011;66373;52.334;4.806;2023-11-21T10:23:18;3.42;;;2.90;;
77262;SDS011;66373;52.334;4.806;2023-11-21T10:25:48;3.65;;;2.55;;
77262;SDS011;66373;52.334;4.806;2023-11-21T10:28:17;2.90;;;2.60;;
77262;SDS011;66373;52.334;4.806;2023-11-21T10:30:55;2.95;;;2.58;;
77262;SDS011;66373;52.334;4.806;2023-11-21T10:33:28;3.20;;;2.63;;
77262;SDS011;66373;52.334;4.806;2023-11-21T10:36:04;2.80;;;2.60;;
77262;SDS011;66373;52.334;4.806;2023-11-21T10:38:41;7.57;;;3.50;;
77262;SDS011;66373;52.334;4.806;2023-11-21T10:41:15;4.43;;;2.97;;
77262;SDS011;66373;52.334;4.806;2023-11-21T10:43:44;4.93;;;3.22;;
77262;SDS011;66373;52.334;4.806;2023-11-21T10:46:14;3.75;;;2.83;;
77262;SDS011;66373;52.334;4.806;2023-11-21T10:48:43;3.95;;;3.05;;
77262;SDS011;66373;52.334;4.806;2023-11-21T10:51:11;3.83;;;3.08;;
77262;SDS011;66373;52.334;4.806;2023-11-21T10:53:39;4.22;;;3.50;;
77262;SDS011;66373;52.334;4.806;2023-11-21T10:56:08;7.78;;;3.10;;
77262;SDS011;66373;52.334;4.806;2023-11-21T10:58:37;6.05;;;3.60;;
77262;SDS011;66373;52.334;4.806;2023-11-21T11:01:06;4.80;;;3.95;;
77262;SDS011;66373;52.334;4.806;2023-11-21T11:03:37;5.38;;;3.50;;
77262;SDS011;66373;52.334;4.806;2023-11-21T11:06:06;4.45;;;3.50;;
77262;SDS011;66373;52.334;4.806;2023-11-21T11:08:37;6.70;;;2.80;;
77262;SDS011;66373;52.334;4.806;2023-11-21T11:11:04;6.95;;;3.28;;
77262;SDS011;66373;52.334;4.806;2023-11-21T11:13:32;5.25;;;3.50;;
77262;SDS011;66373;52.334;4.806;2023-11-21T11:16:00;4.45;;;2.97;;
77262;SDS011;66373;52.334;4.806;2023-11-21T11:18:28;4.63;;;3.20;;
77262;SDS011;66373;52.334;4.806;2023-11-21T11:20:57;7.53;;;3.38;;
77262;SDS011;66373;52.334;4.806;2023-11-21T11:23:41;4.07;;;3.00;;
77262;SDS011;66373;52.334;4.806;2023-11-21T11:26:26;5.30;;;3.10;;
77262;SDS011;66373;52.334;4.806;2023-11-21T11:29:07;8.07;;;3.30;;
77262;SDS011;66373;52.334;4.806;2023-11-21T11:31:45;6.13;;;2.97;;
77262;SDS011;66373;52.334;4.806;2023-11-21T11:34:23;4.93;;;3.20;;
77262;SDS011;66373;52.334;4.806;2023-11-21T11:36:59;4.22;;;3.30;;
77262;SDS011;66373;52.334;4.806;2023-11-21T11:39:31;8.32;;;3.70;;
77262;SDS011;66373;52.334;4.806;2023-11-21T11:42:02;5.72;;;3.45;;
77262;SDS011;66373;52.334;4.806;2023-11-21T11:44:46;6.88;;;3.30;;
77262;SDS011;66373;52.334;4.806;2023-11-21T11:47:22;3.88;;;3.47;;
77262;SDS011;66373;52.334;4.806;2023-11-21T11:50:02;6.53;;;3.53;;
77262;SDS011;66373;52.334;4.806;2023-11-21T11:52:37;4.10;;;3.65;;
77262;SDS011;66373;52.334;4.806;2023-11-21T11:55:07;4.70;;;3.60;;
77262;SDS011;66373;52.334;4.806;2023-11-21T11:57:39;4.10;;;3.30;;
77262;SDS011;66373;52.334;4.806;2023-11-21T12:00:07;5.82;;;3.72;;
77262;SDS011;66373;52.334;4.806;2023-11-21T12:02:36;5.55;;;3.78;;
77262;SDS011;66373;52.334;4.806;2023-11-21T12:05:07;4.25;;;3.65;;
77262;SDS011;66373;52.334;4.806;2023-11-21T12:07:39;4.43;;;3.70;;
77262;SDS011;66373;52.334;4.806;2023-11-21T12:10:14;5.25;;;4.00;;
77262;SDS011;66373;52.334;4.806;2023-11-21T12:12:44;5.00;;;3.45;;
77262;SDS011;66373;52.334;4.806;2023-11-21T12:15:12;3.70;;;3.40;;
77262;SDS011;66373;52.334;4.806;2023-11-21T12:17:41;3.92;;;3.50;;
77262;SDS011;66373;52.334;4.806;2023-11-21T12:20:09;5.13;;;3.50;;
77262;SDS011;66373;52.334;4.806;2023-11-21T12:22:44;6.15;;;4.03;;
77262;SDS011;66373;52.334;4.806;2023-11-21T12:25:17;4.10;;;3.70;;
77262;SDS011;66373;52.334;4.806;2023-11-21T12:27:45;6.75;;;3.80;;
77262;SDS011;66373;52.334;4.806;2023-11-21T12:30:14;5.68;;;4.20;;
77262;SDS011;66373;52.334;4.806;2023-11-21T12:32:43;8.50;;;3.90;;
77262;SDS011;66373;52.334;4.806;2023-11-21T12:35:12;10.02;;;3.97;;
77262;SDS011;66373;52.334;4.806;2023-11-21T12:37:39;3.75;;;3.40;;
77262;SDS011;66373;52.334;4.806;2023-11-21T12:40:08;18.33;;;4.32;;
77262;SDS011;66373;52.334;4.806;2023-11-21T12:42:40;6.90;;;3.83;;
77262;SDS011;66373;52.334;4.806;2023-11-21T12:45:09;9.48;;;3.85;;
77262;SDS011;66373;52.334;4.806;2023-11-21T12:47:46;9.43;;;3.80;;
77262;SDS011;66373;52.334;4.806;2023-11-21T12:50:15;6.00;;;4.05;;
77262;SDS011;66373;52.334;4.806;2023-11-21T12:52:42;6.53;;;3.88;;
77262;SDS011;66373;52.334;4.806;2023-11-21T12:55:13;6.45;;;4.35;;
77262;SDS011;66373;52.334;4.806;2023-11-21T12:57:44;7.85;;;4.35;;
77262;SDS011;66373;52.334;4.806;2023-11-21T13:00:12;6.40;;;4.53;;
77262;SDS011;66373;52.334;4.806;2023-11-21T13:02:52;7.85;;;4.32;;
77262;SDS011;66373;52.334;4.806;2023-11-21T13:05:29;5.10;;;3.95;;
77262;SDS011;66373;52.334;4.806;2023-11-21T13:07:58;5.20;;;4.10;;
77262;SDS011;66373;52.334;4.806;2023-11-21T13:10:29;10.35;;;4.82;;
77262;SDS011;66373;52.334;4.806;2023-11-21T13:12:59;12.55;;;4.32;;
77262;SDS011;66373;52.334;4.806;2023-11-21T13:15:31;15.70;;;4.72;;
77262;SDS011;66373;52.334;4.806;2023-11-21T13:18:00;4.95;;;4.35;;
77262;SDS011;66373;52.334;4.806;2023-11-21T13:20:27;6.40;;;4.30;;
77262;SDS011;66373;52.334;4.806;2023-11-21T13:22:55;6.93;;;4.90;;
77262;SDS011;66373;52.334;4.806;2023-11-21T13:25:24;8.13;;;4.57;;
77262;SDS011;66373;52.334;4.806;2023-11-21T13:27:53;8.63;;;4.63;;
77262;SDS011;66373;52.334;4.806;2023-11-21T13:30:22;7.22;;;4.90;;
77262;SDS011;66373;52.334;4.806;2023-11-21T13:32:52;9.10;;;4.82;;
77262;SDS011;66373;52.334;4.806;2023-11-21T13:35:22;10.75;;;5.15;;
77262;SDS011;66373;52.334;4.806;2023-11-21T13:37:56;5.05;;;4.50;;
77262;SDS011;66373;52.334;4.806;2023-11-21T13:40:25;5.80;;;4.93;;
77262;SDS011;66373;52.334;4.806;2023-11-21T13:42:53;6.95;;;5.00;;
77262;SDS011;66373;52.334;4.806;2023-11-21T13:45:24;5.55;;;4.88;;
77262;SDS011;66373;52.334;4.806;2023-11-21T13:47:55;5.63;;;4.65;;
77262;SDS011;66373;52.334;4.806;2023-11-21T13:50:24;6.40;;;5.03;;
77262;SDS011;66373;52.334;4.806;2023-11-21T13:52:57;5.63;;;5.07;;
77262;SDS011;66373;52.334;4.806;2023-11-21T13:55:28;5.32;;;4.82;;
77262;SDS011;66373;52.334;4.806;2023-11-21T13:57:55;7.88;;;4.68;;
77262;SDS011;66373;52.334;4.806;2023-11-21T14:00:22;5.75;;;5.15;;
77262;SDS011;66373;52.334;4.806;2023-11-21T14:03:11;5.85;;;5.13;;
77262;SDS011;66373;52.334;4.806;2023-11-21T14:05:46;5.07;;;4.57;;
77262;SDS011;66373;52.334;4.806;2023-11-21T14:08:17;5.95;;;5.20;;
77262;SDS011;66373;52.334;4.806;2023-11-21T14:10:46;5.47;;;4.75;;
77262;SDS011;66373;52.334;4.806;2023-11-21T14:13:22;5.50;;;4.85;;
77262;SDS011;66373;52.334;4.806;2023-11-21T14:15:51;5.80;;;5.05;;
77262;SDS011;66373;52.334;4.806;2023-11-21T14:18:23;5.32;;;4.82;;
77262;SDS011;66373;52.334;4.806;2023-11-21T14:20:55;5.03;;;4.32;;
77262;SDS011;66373;52.334;4.806;2023-11-21T14:23:22;5.07;;;4.60;;
77262;SDS011;66373;52.334;4.806;2023-11-21T14:25:49;7.80;;;4.93;;
77262;SDS011;66373;52.334;4.806;2023-11-21T14:28:17;8.05;;;4.97;;
77262;SDS011;66373;52.334;4.806;2023-11-21T14:30:45;8.75;;;4.50;;
77262;SDS011;66373;52.334;4.806;2023-11-21T14:33:13;4.97;;;4.45;;
77262;SDS011;66373;52.334;4.806;2023-11-21T14:35:41;6.53;;;4.53;;
77262;SDS011;66373;52.334;4.806;2023-11-21T14:38:08;5.18;;;4.68;;
77262;SDS011;66373;52.334;4.806;2023-11-21T14:40:36;6.60;;;4.85;;
77262;SDS011;66373;52.334;4.806;2023-11-21T14:43:03;5.20;;;4.70;;
77262;SDS011;66373;52.334;4.806;2023-11-21T14:45:31;5.90;;;4.70;;
77262;SDS011;66373;52.334;4.806;2023-11-21T14:47:59;5.80;;;4.63;;
77262;SDS011;66373;52.334;4.806;2023-11-21T14:50:35;4.97;;;4.47;;
77262;SDS011;66373;52.334;4.806;2023-11-21T14:53:35;4.65;;;4.25;;
77262;SDS011;66373;52.334;4.806;2023-11-21T14:56:09;5.25;;;4.20;;
77262;SDS011;66373;52.334;4.806;2023-11-21T14:58:43;4.63;;;4.00;;
77262;SDS011;66373;52.334;4.806;2023-11-21T15:01:09;4.75;;;4.25;;